sensor_id;sensor_type;location;lat;lon;timestamp;P1;P2;P0
44674;PMS5003;30388;52.038;-1.478;2023-01-29T00:00:08;190;187;
44674;PMS5003;30388;52.038;-1.478;2023-01-29T00:02:36;86;86;
44674;PMS5003;30388;52.038;-1.478;2023-01-29T00:05:03;96;94;
44674;PMS5003;30388;52.038;-1.478;2023-01-29T00:07:32;58;58;
44674;PMS5003;30388;52.038;-1.478;2023-01-29T00:09:59;70;70;
44674;PMS5003;30388;52.038;-1.478;2023-01-29T00:12:26;50;50;
44674;PMS5003;30388;52.038;-1.478;2023-01-29T00:14:53;98;95;
44674;PMS5003;30388;52.038;-1.478;2023-01-29T00:17:21;43;43;
44674;PMS5003;30388;52.038;-1.478;2023-01-29T00:19:47;119;119;
44674;PMS5003;30388;52.038;-1.478;2023-01-29T00:22:15;102;102;
44674;PMS5003;30388;52.038;-1.478;2023-01-29T00:24:42;120;118;
44674;PMS5003;30388;52.038;-1.478;2023-01-29T00:27:09;52;52;
44674;PMS5003;30388;52.038;-1.478;2023-01-29T00:29:36;67;66;
44674;PMS5003;30388;52.038;-1.478;2023-01-29T00:32:04;99;99;
44674;PMS5003;30388;52.038;-1.478;2023-01-29T00:34:31;104;102;
44674;PMS5003;30388;52.038;-1.478;2023-01-29T00:36:58;79;79;
44674;PMS5003;30388;52.038;-1.478;2023-01-29T00:39:25;103;103;
44674;PMS5003;30388;52.038;-1.478;2023-01-29T00:41:53;125;122;
44674;PMS5003;30388;52.038;-1.478;2023-01-29T00:44:20;129;127;
44674;PMS5003;30388;52.038;-1.478;2023-01-29T00:46:47;119;119;
44674;PMS5003;30388;52.038;-1.478;2023-01-29T00:49:15;116;116;
44674;PMS5003;30388;52.038;-1.478;2023-01-29T00:51:42;9;7;
44674;PMS5003;30388;52.038;-1.478;2023-01-29T00:54:10;7;5;
44674;PMS5003;30388;52.038;-1.478;2023-01-29T00:56:37;5;4;
44674;PMS5003;30388;52.038;-1.478;2023-01-29T00:59:04;3;3;
44674;PMS5003;30388;52.038;-1.478;2023-01-29T01:01:31;2;2;
44674;PMS5003;30388;52.038;-1.478;2023-01-29T01:03:58;3;2;
44674;PMS5003;30388;52.038;-1.478;2023-01-29T01:06:26;2;2;
44674;PMS5003;30388;52.038;-1.478;2023-01-29T01:08:53;2;2;
44674;PMS5003;30388;52.038;-1.478;2023-01-29T01:11:20;14;14;
44674;PMS5003;30388;52.038;-1.478;2023-01-29T01:13:47;8;7;
44674;PMS5003;30388;52.038;-1.478;2023-01-29T01:16:16;14;12;
44674;PMS5003;30388;52.038;-1.478;2023-01-29T01:18:44;63;63;
44674;PMS5003;30388;52.038;-1.478;2023-01-29T01:21:11;10;10;
44674;PMS5003;30388;52.038;-1.478;2023-01-29T01:23:38;12;12;
44674;PMS5003;30388;52.038;-1.478;2023-01-29T01:26:07;14;13;
44674;PMS5003;30388;52.038;-1.478;2023-01-29T01:28:35;6;4;
44674;PMS5003;30388;52.038;-1.478;2023-01-29T01:31:07;5;4;
44674;PMS5003;30388;52.038;-1.478;2023-01-29T01:33:35;71;69;
44674;PMS5003;30388;52.038;-1.478;2023-01-29T01:36:02;67;67;
44674;PMS5003;30388;52.038;-1.478;2023-01-29T01:38:30;88;84;
44674;PMS5003;30388;52.038;-1.478;2023-01-29T01:40:57;40;39;
44674;PMS5003;30388;52.038;-1.478;2023-01-29T01:43:24;84;84;
44674;PMS5003;30388;52.038;-1.478;2023-01-29T01:45:51;100;98;
44674;PMS5003;30388;52.038;-1.478;2023-01-29T01:48:18;110;107;
44674;PMS5003;30388;52.038;-1.478;2023-01-29T01:50:51;84;84;
44674;PMS5003;30388;52.038;-1.478;2023-01-29T01:53:25;60;60;
44674;PMS5003;30388;52.038;-1.478;2023-01-29T01:55:56;90;90;
44674;PMS5003;30388;52.038;-1.478;2023-01-29T01:58:27;128;121;
44674;PMS5003;30388;52.038;-1.478;2023-01-29T02:00:57;131;129;
44674;PMS5003;30388;52.038;-1.478;2023-01-29T02:03:24;128;128;
44674;PMS5003;30388;52.038;-1.478;2023-01-29T02:05:54;133;132;
44674;PMS5003;30388;52.038;-1.478;2023-01-29T02:08:26;114;110;
44674;PMS5003;30388;52.038;-1.478;2023-01-29T02:11:01;74;74;
44674;PMS5003;30388;52.038;-1.478;2023-01-29T02:13:28;55;54;
44674;PMS5003;30388;52.038;-1.478;2023-01-29T02:15:55;19;19;
44674;PMS5003;30388;52.038;-1.478;2023-01-29T02:18:22;21;18;
44674;PMS5003;30388;52.038;-1.478;2023-01-29T02:20:55;23;21;
44674;PMS5003;30388;52.038;-1.478;2023-01-29T02:23:39;14;14;
44674;PMS5003;30388;52.038;-1.478;2023-01-29T02:27:30;18;18;
44674;PMS5003;30388;52.038;-1.478;2023-01-29T02:31:12;51;49;
44674;PMS5003;30388;52.038;-1.478;2023-01-29T02:33:49;22;15;
44674;PMS5003;30388;52.038;-1.478;2023-01-29T02:36:30;39;37;
44674;PMS5003;30388;52.038;-1.478;2023-01-29T02:39:06;144;144;
44674;PMS5003;30388;52.038;-1.478;2023-01-29T02:41:40;48;46;
44674;PMS5003;30388;52.038;-1.478;2023-01-29T02:44:15;36;34;
44674;PMS5003;30388;52.038;-1.478;2023-01-29T02:46:50;58;58;
44674;PMS5003;30388;52.038;-1.478;2023-01-29T02:49:24;43;42;
44674;PMS5003;30388;52.038;-1.478;2023-01-29T02:52:01;55;53;
44674;PMS5003;30388;52.038;-1.478;2023-01-29T02:54:38;29;22;
44674;PMS5003;30388;52.038;-1.478;2023-01-29T02:57:13;76;76;
44674;PMS5003;30388;52.038;-1.478;2023-01-29T02:59:46;23;20;
44674;PMS5003;30388;52.038;-1.478;2023-01-29T03:02:19;38;36;
44674;PMS5003;30388;52.038;-1.478;2023-01-29T03:04:53;57;52;
44674;PMS5003;30388;52.038;-1.478;2023-01-29T03:07:25;31;29;
44674;PMS5003;30388;52.038;-1.478;2023-01-29T03:09:58;25;23;
44674;PMS5003;30388;52.038;-1.478;2023-01-29T03:12:28;33;33;
44674;PMS5003;30388;52.038;-1.478;2023-01-29T03:14:59;124;124;
44674;PMS5003;30388;52.038;-1.478;2023-01-29T03:17:32;183;183;
44674;PMS5003;30388;52.038;-1.478;2023-01-29T03:20:08;195;195;
44674;PMS5003;30388;52.038;-1.478;2023-01-29T03:22:43;221;216;
44674;PMS5003;30388;52.038;-1.478;2023-01-29T03:25:16;216;205;
44674;PMS5003;30388;52.038;-1.478;2023-01-29T03:27:46;262;259;
44674;PMS5003;30388;52.038;-1.478;2023-01-29T03:30:18;244;239;
44674;PMS5003;30388;52.038;-1.478;2023-01-29T03:32:47;193;189;
44674;PMS5003;30388;52.038;-1.478;2023-01-29T03:35:17;168;168;
44674;PMS5003;30388;52.038;-1.478;2023-01-29T03:37:48;14;13;
44674;PMS5003;30388;52.038;-1.478;2023-01-29T03:40:16;32;32;
44674;PMS5003;30388;52.038;-1.478;2023-01-29T03:42:47;35;35;
44674;PMS5003;30388;52.038;-1.478;2023-01-29T03:45:24;27;25;
44674;PMS5003;30388;52.038;-1.478;2023-01-29T03:48:01;83;81;
44674;PMS5003;30388;52.038;-1.478;2023-01-29T03:50:35;38;38;
44674;PMS5003;30388;52.038;-1.478;2023-01-29T03:53:08;52;47;
44674;PMS5003;30388;52.038;-1.478;2023-01-29T03:55:42;21;17;
44674;PMS5003;30388;52.038;-1.478;2023-01-29T03:58:20;22;22;
44674;PMS5003;30388;52.038;-1.478;2023-01-29T04:00:55;18;16;
44674;PMS5003;30388;52.038;-1.478;2023-01-29T04:03:28;26;23;
44674;PMS5003;30388;52.038;-1.478;2023-01-29T04:06:01;12;12;
44674;PMS5003;30388;52.038;-1.478;2023-01-29T04:08:33;14;14;
44674;PMS5003;30388;52.038;-1.478;2023-01-29T04:11:10;46;46;
44674;PMS5003;30388;52.038;-1.478;2023-01-29T04:13:41;45;44;
44674;PMS5003;30388;52.038;-1.478;2023-01-29T04:16:11;40;40;
44674;PMS5003;30388;52.038;-1.478;2023-01-29T04:18:44;119;116;
44674;PMS5003;30388;52.038;-1.478;2023-01-29T04:21:12;139;136;
44674;PMS5003;30388;52.038;-1.478;2023-01-29T04:23:40;95;95;
44674;PMS5003;30388;52.038;-1.478;2023-01-29T04:26:16;110;110;
44674;PMS5003;30388;52.038;-1.478;2023-01-29T04:28:57;61;59;
44674;PMS5003;30388;52.038;-1.478;2023-01-29T04:31:34;33;33;
44674;PMS5003;30388;52.038;-1.478;2023-01-29T04:34:11;75;72;
44674;PMS5003;30388;52.038;-1.478;2023-01-29T04:36:46;113;112;
44674;PMS5003;30388;52.038;-1.478;2023-01-29T04:39:26;104;102;
44674;PMS5003;30388;52.038;-1.478;2023-01-29T04:42:04;96;96;
44674;PMS5003;30388;52.038;-1.478;2023-01-29T04:44:38;86;86;
44674;PMS5003;30388;52.038;-1.478;2023-01-29T04:47:15;91;91;
44674;PMS5003;30388;52.038;-1.478;2023-01-29T04:49:48;58;56;
44674;PMS5003;30388;52.038;-1.478;2023-01-29T04:52:27;33;33;
44674;PMS5003;30388;52.038;-1.478;2023-01-29T04:55:05;31;31;
44674;PMS5003;30388;52.038;-1.478;2023-01-29T04:57:40;39;36;
44674;PMS5003;30388;52.038;-1.478;2023-01-29T05:00:15;112;110;
44674;PMS5003;30388;52.038;-1.478;2023-01-29T05:02:46;141;140;
44674;PMS5003;30388;52.038;-1.478;2023-01-29T05:05:15;214;213;
44674;PMS5003;30388;52.038;-1.478;2023-01-29T05:07:44;202;197;
44674;PMS5003;30388;52.038;-1.478;2023-01-29T05:10:13;193;193;
44674;PMS5003;30388;52.038;-1.478;2023-01-29T05:12:45;26;26;
44674;PMS5003;30388;52.038;-1.478;2023-01-29T05:15:18;24;24;
44674;PMS5003;30388;52.038;-1.478;2023-01-29T05:17:49;34;34;
44674;PMS5003;30388;52.038;-1.478;2023-01-29T05:20:16;28;23;
44674;PMS5003;30388;52.038;-1.478;2023-01-29T05:22:44;41;37;
44674;PMS5003;30388;52.038;-1.478;2023-01-29T05:25:19;28;27;
44674;PMS5003;30388;52.038;-1.478;2023-01-29T05:27:49;25;24;
44674;PMS5003;30388;52.038;-1.478;2023-01-29T05:30:17;26;26;
44674;PMS5003;30388;52.038;-1.478;2023-01-29T05:32:45;135;135;
44674;PMS5003;30388;52.038;-1.478;2023-01-29T05:35:12;95;95;
44674;PMS5003;30388;52.038;-1.478;2023-01-29T05:37:39;131;131;
44674;PMS5003;30388;52.038;-1.478;2023-01-29T05:40:07;131;126;
44674;PMS5003;30388;52.038;-1.478;2023-01-29T05:42:35;122;122;
44674;PMS5003;30388;52.038;-1.478;2023-01-29T05:45:02;129;127;
44674;PMS5003;30388;52.038;-1.478;2023-01-29T05:47:29;119;118;
44674;PMS5003;30388;52.038;-1.478;2023-01-29T05:49:56;137;135;
44674;PMS5003;30388;52.038;-1.478;2023-01-29T05:52:23;105;101;
44674;PMS5003;30388;52.038;-1.478;2023-01-29T05:54:50;18;16;
44674;PMS5003;30388;52.038;-1.478;2023-01-29T05:57:17;69;68;
44674;PMS5003;30388;52.038;-1.478;2023-01-29T05:59:45;108;108;
44674;PMS5003;30388;52.038;-1.478;2023-01-29T06:02:12;136;136;
44674;PMS5003;30388;52.038;-1.478;2023-01-29T06:04:39;26;24;
44674;PMS5003;30388;52.038;-1.478;2023-01-29T06:07:06;17;15;
44674;PMS5003;30388;52.038;-1.478;2023-01-29T06:09:34;27;25;
44674;PMS5003;30388;52.038;-1.478;2023-01-29T06:12:02;23;20;
44674;PMS5003;30388;52.038;-1.478;2023-01-29T06:14:29;103;103;
44674;PMS5003;30388;52.038;-1.478;2023-01-29T06:16:56;110;110;
44674;PMS5003;30388;52.038;-1.478;2023-01-29T06:19:23;49;49;
44674;PMS5003;30388;52.038;-1.478;2023-01-29T06:21:50;31;25;
44674;PMS5003;30388;52.038;-1.478;2023-01-29T06:24:17;116;116;
44674;PMS5003;30388;52.038;-1.478;2023-01-29T06:26:44;76;76;
44674;PMS5003;30388;52.038;-1.478;2023-01-29T06:29:11;27;19;
44674;PMS5003;30388;52.038;-1.478;2023-01-29T06:31:39;29;25;
44674;PMS5003;30388;52.038;-1.478;2023-01-29T06:34:06;127;127;
44674;PMS5003;30388;52.038;-1.478;2023-01-29T06:36:33;114;113;
44674;PMS5003;30388;52.038;-1.478;2023-01-29T06:39:01;131;126;
44674;PMS5003;30388;52.038;-1.478;2023-01-29T06:41:29;135;135;
44674;PMS5003;30388;52.038;-1.478;2023-01-29T06:43:56;132;131;
44674;PMS5003;30388;52.038;-1.478;2023-01-29T06:46:23;135;133;
44674;PMS5003;30388;52.038;-1.478;2023-01-29T06:48:50;133;133;
44674;PMS5003;30388;52.038;-1.478;2023-01-29T06:51:18;130;128;
44674;PMS5003;30388;52.038;-1.478;2023-01-29T06:53:45;129;127;
44674;PMS5003;30388;52.038;-1.478;2023-01-29T06:56:12;49;47;
44674;PMS5003;30388;52.038;-1.478;2023-01-29T06:58:39;33;28;
44674;PMS5003;30388;52.038;-1.478;2023-01-29T07:01:07;16;14;
44674;PMS5003;30388;52.038;-1.478;2023-01-29T07:03:36;14;13;
44674;PMS5003;30388;52.038;-1.478;2023-01-29T07:06:03;5;5;
44674;PMS5003;30388;52.038;-1.478;2023-01-29T07:08:31;13;11;
44674;PMS5003;30388;52.038;-1.478;2023-01-29T07:11:01;7;6;
44674;PMS5003;30388;52.038;-1.478;2023-01-29T07:13:29;40;40;
44674;PMS5003;30388;52.038;-1.478;2023-01-29T07:15:56;66;63;
44674;PMS5003;30388;52.038;-1.478;2023-01-29T07:18:24;134;132;
44674;PMS5003;30388;52.038;-1.478;2023-01-29T07:20:51;107;107;
44674;PMS5003;30388;52.038;-1.478;2023-01-29T07:23:19;116;115;
44674;PMS5003;30388;52.038;-1.478;2023-01-29T07:25:46;47;42;
44674;PMS5003;30388;52.038;-1.478;2023-01-29T07:28:13;129;129;
44674;PMS5003;30388;52.038;-1.478;2023-01-29T07:30:41;114;114;
44674;PMS5003;30388;52.038;-1.478;2023-01-29T07:33:09;132;132;
44674;PMS5003;30388;52.038;-1.478;2023-01-29T07:35:37;136;135;
44674;PMS5003;30388;52.038;-1.478;2023-01-29T07:38:06;137;135;
44674;PMS5003;30388;52.038;-1.478;2023-01-29T07:40:34;122;121;
44674;PMS5003;30388;52.038;-1.478;2023-01-29T07:43:03;19;16;
44674;PMS5003;30388;52.038;-1.478;2023-01-29T07:45:32;98;97;
44674;PMS5003;30388;52.038;-1.478;2023-01-29T07:48:00;56;54;
44674;PMS5003;30388;52.038;-1.478;2023-01-29T07:50:27;52;51;
44674;PMS5003;30388;52.038;-1.478;2023-01-29T07:52:55;26;23;
44674;PMS5003;30388;52.038;-1.478;2023-01-29T07:55:22;8;6;
44674;PMS5003;30388;52.038;-1.478;2023-01-29T07:57:53;7;5;
44674;PMS5003;30388;52.038;-1.478;2023-01-29T08:00:21;5;5;
44674;PMS5003;30388;52.038;-1.478;2023-01-29T08:02:48;5;4;
44674;PMS5003;30388;52.038;-1.478;2023-01-29T08:05:16;4;4;
44674;PMS5003;30388;52.038;-1.478;2023-01-29T08:07:44;8;5;
44674;PMS5003;30388;52.038;-1.478;2023-01-29T08:10:11;6;5;
44674;PMS5003;30388;52.038;-1.478;2023-01-29T08:12:38;5;5;
44674;PMS5003;30388;52.038;-1.478;2023-01-29T08:15:05;14;12;
44674;PMS5003;30388;52.038;-1.478;2023-01-29T08:17:33;13;10;
44674;PMS5003;30388;52.038;-1.478;2023-01-29T08:20:00;11;7;
44674;PMS5003;30388;52.038;-1.478;2023-01-29T08:22:27;12;12;
44674;PMS5003;30388;52.038;-1.478;2023-01-29T08:24:54;7;6;
44674;PMS5003;30388;52.038;-1.478;2023-01-29T08:27:22;12;12;
44674;PMS5003;30388;52.038;-1.478;2023-01-29T08:29:49;9;7;
44674;PMS5003;30388;52.038;-1.478;2023-01-29T08:32:16;6;6;
44674;PMS5003;30388;52.038;-1.478;2023-01-29T08:34:43;7;6;
44674;PMS5003;30388;52.038;-1.478;2023-01-29T08:37:10;6;5;
44674;PMS5003;30388;52.038;-1.478;2023-01-29T08:39:38;10;6;
44674;PMS5003;30388;52.038;-1.478;2023-01-29T08:42:05;13;10;
44674;PMS5003;30388;52.038;-1.478;2023-01-29T08:44:32;12;11;
44674;PMS5003;30388;52.038;-1.478;2023-01-29T08:47:00;6;4;
44674;PMS5003;30388;52.038;-1.478;2023-01-29T08:49:27;5;3;
44674;PMS5003;30388;52.038;-1.478;2023-01-29T08:51:54;7;7;
44674;PMS5003;30388;52.038;-1.478;2023-01-29T08:54:21;13;6;
44674;PMS5003;30388;52.038;-1.478;2023-01-29T08:56:49;5;5;
44674;PMS5003;30388;52.038;-1.478;2023-01-29T08:59:16;6;5;
44674;PMS5003;30388;52.038;-1.478;2023-01-29T09:01:44;5;3;
44674;PMS5003;30388;52.038;-1.478;2023-01-29T09:04:11;7;4;
44674;PMS5003;30388;52.038;-1.478;2023-01-29T09:06:38;6;4;
44674;PMS5003;30388;52.038;-1.478;2023-01-29T09:09:05;8;5;
44674;PMS5003;30388;52.038;-1.478;2023-01-29T09:11:33;7;6;
44674;PMS5003;30388;52.038;-1.478;2023-01-29T09:14:00;4;3;
44674;PMS5003;30388;52.038;-1.478;2023-01-29T09:16:27;5;3;
44674;PMS5003;30388;52.038;-1.478;2023-01-29T09:18:54;6;4;
44674;PMS5003;30388;52.038;-1.478;2023-01-29T09:21:22;3;2;
44674;PMS5003;30388;52.038;-1.478;2023-01-29T09:23:49;4;3;
44674;PMS5003;30388;52.038;-1.478;2023-01-29T09:26:16;6;3;
44674;PMS5003;30388;52.038;-1.478;2023-01-29T09:28:43;2;2;
44674;PMS5003;30388;52.038;-1.478;2023-01-29T09:31:10;3;2;
44674;PMS5003;30388;52.038;-1.478;2023-01-29T09:33:37;8;3;
44674;PMS5003;30388;52.038;-1.478;2023-01-29T09:36:05;4;3;
44674;PMS5003;30388;52.038;-1.478;2023-01-29T09:38:33;4;3;
44674;PMS5003;30388;52.038;-1.478;2023-01-29T09:41:03;5;2;
44674;PMS5003;30388;52.038;-1.478;2023-01-29T09:43:39;7;4;
44674;PMS5003;30388;52.038;-1.478;2023-01-29T09:46:13;7;5;
44674;PMS5003;30388;52.038;-1.478;2023-01-29T09:48:46;2;2;
44674;PMS5003;30388;52.038;-1.478;2023-01-29T09:51:22;6;3;
44674;PMS5003;30388;52.038;-1.478;2023-01-29T09:53:56;2;2;
44674;PMS5003;30388;52.038;-1.478;2023-01-29T09:56:31;4;4;
44674;PMS5003;30388;52.038;-1.478;2023-01-29T09:59:00;3;2;
44674;PMS5003;30388;52.038;-1.478;2023-01-29T10:01:31;5;3;
44674;PMS5003;30388;52.038;-1.478;2023-01-29T10:04:06;7;3;
44674;PMS5003;30388;52.038;-1.478;2023-01-29T10:06:55;6;5;
44674;PMS5003;30388;52.038;-1.478;2023-01-29T10:09:34;2;2;
44674;PMS5003;30388;52.038;-1.478;2023-01-29T10:12:26;3;2;
44674;PMS5003;30388;52.038;-1.478;2023-01-29T10:15:06;1;1;
44674;PMS5003;30388;52.038;-1.478;2023-01-29T10:17:50;5;4;
44674;PMS5003;30388;52.038;-1.478;2023-01-29T10:20:32;4;4;
44674;PMS5003;30388;52.038;-1.478;2023-01-29T10:23:18;2;2;
44674;PMS5003;30388;52.038;-1.478;2023-01-29T10:25:50;4;3;
44674;PMS5003;30388;52.038;-1.478;2023-01-29T10:28:19;16;16;
44674;PMS5003;30388;52.038;-1.478;2023-01-29T10:30:50;8;8;
44674;PMS5003;30388;52.038;-1.478;2023-01-29T10:33:24;43;43;
44674;PMS5003;30388;52.038;-1.478;2023-01-29T10:35:57;53;53;
44674;PMS5003;30388;52.038;-1.478;2023-01-29T10:38:33;89;84;
44674;PMS5003;30388;52.038;-1.478;2023-01-29T10:41:10;123;123;
44674;PMS5003;30388;52.038;-1.478;2023-01-29T10:43:50;138;138;
44674;PMS5003;30388;52.038;-1.478;2023-01-29T10:46:30;144;143;
44674;PMS5003;30388;52.038;-1.478;2023-01-29T10:49:12;140;138;
44674;PMS5003;30388;52.038;-1.478;2023-01-29T10:51:54;146;146;
44674;PMS5003;30388;52.038;-1.478;2023-01-29T10:54:38;149;147;
44674;PMS5003;30388;52.038;-1.478;2023-01-29T10:57:18;142;141;
44674;PMS5003;30388;52.038;-1.478;2023-01-29T10:59:58;144;142;
44674;PMS5003;30388;52.038;-1.478;2023-01-29T11:02:29;133;130;
44674;PMS5003;30388;52.038;-1.478;2023-01-29T11:04:59;132;129;
44674;PMS5003;30388;52.038;-1.478;2023-01-29T11:07:26;135;134;
44674;PMS5003;30388;52.038;-1.478;2023-01-29T11:09:55;130;129;
44674;PMS5003;30388;52.038;-1.478;2023-01-29T11:12:28;146;145;
44674;PMS5003;30388;52.038;-1.478;2023-01-29T11:14:58;135;134;
44674;PMS5003;30388;52.038;-1.478;2023-01-29T11:17:31;132;132;
44674;PMS5003;30388;52.038;-1.478;2023-01-29T11:19:58;131;130;
44674;PMS5003;30388;52.038;-1.478;2023-01-29T11:22:26;137;137;
44674;PMS5003;30388;52.038;-1.478;2023-01-29T11:25:14;127;127;
44674;PMS5003;30388;52.038;-1.478;2023-01-29T11:27:48;129;127;
44674;PMS5003;30388;52.038;-1.478;2023-01-29T11:30:19;132;132;
44674;PMS5003;30388;52.038;-1.478;2023-01-29T11:32:49;128;127;
44674;PMS5003;30388;52.038;-1.478;2023-01-29T11:35:24;134;134;
44674;PMS5003;30388;52.038;-1.478;2023-01-29T11:37:51;169;168;
44674;PMS5003;30388;52.038;-1.478;2023-01-29T11:40:30;181;181;
44674;PMS5003;30388;52.038;-1.478;2023-01-29T11:43:12;174;171;
44674;PMS5003;30388;52.038;-1.478;2023-01-29T11:45:54;165;162;
44674;PMS5003;30388;52.038;-1.478;2023-01-29T11:48:25;181;180;
44674;PMS5003;30388;52.038;-1.478;2023-01-29T11:50:59;194;192;
44674;PMS5003;30388;52.038;-1.478;2023-01-29T11:53:32;209;207;
44674;PMS5003;30388;52.038;-1.478;2023-01-29T11:56:03;124;124;
44674;PMS5003;30388;52.038;-1.478;2023-01-29T11:58:40;150;150;
44674;PMS5003;30388;52.038;-1.478;2023-01-29T12:01:08;141;141;
44674;PMS5003;30388;52.038;-1.478;2023-01-29T12:03:38;203;203;
44674;PMS5003;30388;52.038;-1.478;2023-01-29T12:06:13;181;179;
44674;PMS5003;30388;52.038;-1.478;2023-01-29T12:08:53;151;149;
44674;PMS5003;30388;52.038;-1.478;2023-01-29T12:11:23;145;145;
44674;PMS5003;30388;52.038;-1.478;2023-01-29T12:13:55;183;177;
44674;PMS5003;30388;52.038;-1.478;2023-01-29T12:16:25;165;164;
44674;PMS5003;30388;52.038;-1.478;2023-01-29T12:19:01;139;138;
44674;PMS5003;30388;52.038;-1.478;2023-01-29T12:21:38;134;134;
44674;PMS5003;30388;52.038;-1.478;2023-01-29T12:24:15;141;140;
44674;PMS5003;30388;52.038;-1.478;2023-01-29T12:26:54;132;131;
44674;PMS5003;30388;52.038;-1.478;2023-01-29T12:29:30;122;122;
44674;PMS5003;30388;52.038;-1.478;2023-01-29T12:32:05;154;153;
44674;PMS5003;30388;52.038;-1.478;2023-01-29T12:34:41;236;236;
44674;PMS5003;30388;52.038;-1.478;2023-01-29T12:37:18;243;240;
44674;PMS5003;30388;52.038;-1.478;2023-01-29T12:39:49;225;223;
44674;PMS5003;30388;52.038;-1.478;2023-01-29T12:42:18;243;238;
44674;PMS5003;30388;52.038;-1.478;2023-01-29T12:44:49;221;216;
44674;PMS5003;30388;52.038;-1.478;2023-01-29T12:47:20;219;219;
44674;PMS5003;30388;52.038;-1.478;2023-01-29T12:49:51;206;201;
44674;PMS5003;30388;52.038;-1.478;2023-01-29T12:52:22;199;199;
44674;PMS5003;30388;52.038;-1.478;2023-01-29T12:55:01;197;196;
44674;PMS5003;30388;52.038;-1.478;2023-01-29T12:57:37;172;170;
44674;PMS5003;30388;52.038;-1.478;2023-01-29T13:00:10;160;155;
44674;PMS5003;30388;52.038;-1.478;2023-01-29T13:02:46;162;159;
44674;PMS5003;30388;52.038;-1.478;2023-01-29T13:05:24;180;179;
44674;PMS5003;30388;52.038;-1.478;2023-01-29T13:08:00;162;162;
44674;PMS5003;30388;52.038;-1.478;2023-01-29T13:10:31;238;238;
44674;PMS5003;30388;52.038;-1.478;2023-01-29T13:13:03;212;212;
44674;PMS5003;30388;52.038;-1.478;2023-01-29T13:15:39;191;191;
44674;PMS5003;30388;52.038;-1.478;2023-01-29T13:18:18;199;199;
44674;PMS5003;30388;52.038;-1.478;2023-01-29T13:20:57;194;194;
44674;PMS5003;30388;52.038;-1.478;2023-01-29T13:23:27;209;208;
44674;PMS5003;30388;52.038;-1.478;2023-01-29T13:25:59;181;181;
44674;PMS5003;30388;52.038;-1.478;2023-01-29T13:28:27;228;227;
44674;PMS5003;30388;52.038;-1.478;2023-01-29T13:31:12;238;238;
44674;PMS5003;30388;52.038;-1.478;2023-01-29T13:33:54;183;182;
44674;PMS5003;30388;52.038;-1.478;2023-01-29T13:36:28;179;179;
44674;PMS5003;30388;52.038;-1.478;2023-01-29T13:38:59;155;155;
44674;PMS5003;30388;52.038;-1.478;2023-01-29T13:41:31;272;272;
44674;PMS5003;30388;52.038;-1.478;2023-01-29T13:44:00;234;234;
44674;PMS5003;30388;52.038;-1.478;2023-01-29T13:46:28;255;253;
44674;PMS5003;30388;52.038;-1.478;2023-01-29T13:48:56;166;166;
44674;PMS5003;30388;52.038;-1.478;2023-01-29T13:51:26;268;268;
44674;PMS5003;30388;52.038;-1.478;2023-01-29T13:54:01;274;274;
44674;PMS5003;30388;52.038;-1.478;2023-01-29T13:56:55;159;158;
44674;PMS5003;30388;52.038;-1.478;2023-01-29T13:59:24;166;165;
44674;PMS5003;30388;52.038;-1.478;2023-01-29T14:02:19;222;222;
44674;PMS5003;30388;52.038;-1.478;2023-01-29T14:04:49;303;303;
44674;PMS5003;30388;52.038;-1.478;2023-01-29T14:07:49;320;320;
44674;PMS5003;30388;52.038;-1.478;2023-01-29T14:10:17;263;261;
44674;PMS5003;30388;52.038;-1.478;2023-01-29T14:12:47;243;240;
44674;PMS5003;30388;52.038;-1.478;2023-01-29T14:15:25;297;297;
44674;PMS5003;30388;52.038;-1.478;2023-01-29T14:17:55;245;245;
44674;PMS5003;30388;52.038;-1.478;2023-01-29T14:20:29;271;271;
44674;PMS5003;30388;52.038;-1.478;2023-01-29T14:23:00;265;264;
44674;PMS5003;30388;52.038;-1.478;2023-01-29T14:25:29;187;187;
44674;PMS5003;30388;52.038;-1.478;2023-01-29T14:28:00;153;150;
44674;PMS5003;30388;52.038;-1.478;2023-01-29T14:30:29;185;185;
44674;PMS5003;30388;52.038;-1.478;2023-01-29T14:32:58;168;168;
44674;PMS5003;30388;52.038;-1.478;2023-01-29T14:35:28;193;193;
44674;PMS5003;30388;52.038;-1.478;2023-01-29T14:37:59;155;153;
44674;PMS5003;30388;52.038;-1.478;2023-01-29T14:40:31;197;197;
44674;PMS5003;30388;52.038;-1.478;2023-01-29T14:42:59;154;154;
44674;PMS5003;30388;52.038;-1.478;2023-01-29T14:45:30;138;137;
44674;PMS5003;30388;52.038;-1.478;2023-01-29T14:48:01;135;134;
44674;PMS5003;30388;52.038;-1.478;2023-01-29T14:50:40;136;135;
44674;PMS5003;30388;52.038;-1.478;2023-01-29T14:53:32;179;179;
44674;PMS5003;30388;52.038;-1.478;2023-01-29T14:56:16;149;149;
44674;PMS5003;30388;52.038;-1.478;2023-01-29T14:58:49;161;161;
44674;PMS5003;30388;52.038;-1.478;2023-01-29T15:01:28;143;143;
44674;PMS5003;30388;52.038;-1.478;2023-01-29T15:04:01;151;149;
44674;PMS5003;30388;52.038;-1.478;2023-01-29T15:06:32;152;152;
44674;PMS5003;30388;52.038;-1.478;2023-01-29T15:09:09;127;125;
44674;PMS5003;30388;52.038;-1.478;2023-01-29T15:11:43;134;134;
44674;PMS5003;30388;52.038;-1.478;2023-01-29T15:14:20;128;128;
44674;PMS5003;30388;52.038;-1.478;2023-01-29T15:16:58;131;131;
44674;PMS5003;30388;52.038;-1.478;2023-01-29T15:19:34;133;133;
44674;PMS5003;30388;52.038;-1.478;2023-01-29T15:22:03;132;132;
44674;PMS5003;30388;52.038;-1.478;2023-01-29T15:24:33;151;150;
44674;PMS5003;30388;52.038;-1.478;2023-01-29T15:27:01;173;173;
44674;PMS5003;30388;52.038;-1.478;2023-01-29T15:29:29;124;124;
44674;PMS5003;30388;52.038;-1.478;2023-01-29T15:31:56;125;124;
44674;PMS5003;30388;52.038;-1.478;2023-01-29T15:34:24;184;184;
44674;PMS5003;30388;52.038;-1.478;2023-01-29T15:36:52;166;166;
44674;PMS5003;30388;52.038;-1.478;2023-01-29T15:39:20;186;186;
44674;PMS5003;30388;52.038;-1.478;2023-01-29T15:41:49;123;120;
44674;PMS5003;30388;52.038;-1.478;2023-01-29T15:44:29;154;153;
44674;PMS5003;30388;52.038;-1.478;2023-01-29T15:46:57;108;108;
44674;PMS5003;30388;52.038;-1.478;2023-01-29T15:49:29;23;22;
44674;PMS5003;30388;52.038;-1.478;2023-01-29T15:51:59;18;16;
44674;PMS5003;30388;52.038;-1.478;2023-01-29T15:54:31;14;13;
44674;PMS5003;30388;52.038;-1.478;2023-01-29T15:57:00;13;13;
44674;PMS5003;30388;52.038;-1.478;2023-01-29T15:59:30;44;44;
44674;PMS5003;30388;52.038;-1.478;2023-01-29T16:02:16;28;28;
44674;PMS5003;30388;52.038;-1.478;2023-01-29T16:04:47;76;75;
44674;PMS5003;30388;52.038;-1.478;2023-01-29T16:07:14;117;115;
44674;PMS5003;30388;52.038;-1.478;2023-01-29T16:09:42;59;59;
44674;PMS5003;30388;52.038;-1.478;2023-01-29T16:12:09;126;126;
44674;PMS5003;30388;52.038;-1.478;2023-01-29T16:14:38;126;126;
44674;PMS5003;30388;52.038;-1.478;2023-01-29T16:17:09;121;121;
44674;PMS5003;30388;52.038;-1.478;2023-01-29T16:19:54;93;93;